sensor_id;sensor_type;location;lat;lon;timestamp;temperature;humidity
82851;DHT22;72609;45.768;4.884;2023-09-18T00:02:07;26.60;49.70
82851;DHT22;72609;45.768;4.884;2023-09-18T00:04:33;26.50;49.70
82851;DHT22;72609;45.768;4.884;2023-09-18T00:06:59;26.30;50.10
82851;DHT22;72609;45.768;4.884;2023-09-18T00:09:24;26.30;50.70
82851;DHT22;72609;45.768;4.884;2023-09-18T00:11:50;26.10;51.00
82851;DHT22;72609;45.768;4.884;2023-09-18T00:14:16;26.00;51.30
82851;DHT22;72609;45.768;4.884;2023-09-18T00:16:41;26.00;51.70
82851;DHT22;72609;45.768;4.884;2023-09-18T00:19:07;25.90;51.90
82851;DHT22;72609;45.768;4.884;2023-09-18T00:21:36;25.90;52.00
82851;DHT22;72609;45.768;4.884;2023-09-18T00:24:02;25.90;52.00
82851;DHT22;72609;45.768;4.884;2023-09-18T00:26:28;25.80;52.10
82851;DHT22;72609;45.768;4.884;2023-09-18T00:28:53;25.80;52.40
82851;DHT22;72609;45.768;4.884;2023-09-18T00:31:19;25.80;52.50
82851;DHT22;72609;45.768;4.884;2023-09-18T00:33:45;25.80;52.60
82851;DHT22;72609;45.768;4.884;2023-09-18T00:36:10;25.80;52.60
82851;DHT22;72609;45.768;4.884;2023-09-18T00:38:36;25.70;52.70
82851;DHT22;72609;45.768;4.884;2023-09-18T00:41:01;25.60;53.00
82851;DHT22;72609;45.768;4.884;2023-09-18T00:43:27;25.60;53.20
82851;DHT22;72609;45.768;4.884;2023-09-18T00:45:53;25.60;53.30
82851;DHT22;72609;45.768;4.884;2023-09-18T00:48:19;25.60;53.30
82851;DHT22;72609;45.768;4.884;2023-09-18T00:50:45;25.60;53.20
82851;DHT22;72609;45.768;4.884;2023-09-18T00:53:17;25.60;53.20
82851;DHT22;72609;45.768;4.884;2023-09-18T00:55:44;25.70;52.90
82851;DHT22;72609;45.768;4.884;2023-09-18T00:58:10;25.70;52.60
82851;DHT22;72609;45.768;4.884;2023-09-18T01:00:37;25.70;52.60
82851;DHT22;72609;45.768;4.884;2023-09-18T01:03:03;25.70;52.70
82851;DHT22;72609;45.768;4.884;2023-09-18T01:05:34;25.60;52.80
82851;DHT22;72609;45.768;4.884;2023-09-18T01:08:01;25.70;52.70
82851;DHT22;72609;45.768;4.884;2023-09-18T01:10:34;25.70;53.00
82851;DHT22;72609;45.768;4.884;2023-09-18T01:13:13;25.70;53.70
82851;DHT22;72609;45.768;4.884;2023-09-18T01:16:31;25.70;54.10
82851;DHT22;72609;45.768;4.884;2023-09-18T01:18:57;25.80;54.00
82851;DHT22;72609;45.768;4.884;2023-09-18T01:21:23;25.80;54.70
82851;DHT22;72609;45.768;4.884;2023-09-18T01:23:49;25.80;54.10
82851;DHT22;72609;45.768;4.884;2023-09-18T01:26:14;25.70;55.00
82851;DHT22;72609;45.768;4.884;2023-09-18T01:28:40;25.60;55.00
82851;DHT22;72609;45.768;4.884;2023-09-18T01:31:06;25.50;55.90
82851;DHT22;72609;45.768;4.884;2023-09-18T01:33:33;25.40;56.90
82851;DHT22;72609;45.768;4.884;2023-09-18T01:35:59;25.30;58.50
82851;DHT22;72609;45.768;4.884;2023-09-18T01:38:26;25.30;59.70
82851;DHT22;72609;45.768;4.884;2023-09-18T01:40:53;25.10;60.20
82851;DHT22;72609;45.768;4.884;2023-09-18T01:43:19;24.80;61.70
82851;DHT22;72609;45.768;4.884;2023-09-18T01:45:46;24.40;63.10
82851;DHT22;72609;45.768;4.884;2023-09-18T01:48:13;24.00;64.00
82851;DHT22;72609;45.768;4.884;2023-09-18T01:50:39;23.80;65.40
82851;DHT22;72609;45.768;4.884;2023-09-18T01:53:07;23.80;65.50
82851;DHT22;72609;45.768;4.884;2023-09-18T01:55:33;23.90;66.80
82851;DHT22;72609;45.768;4.884;2023-09-18T01:57:59;24.00;67.80
82851;DHT22;72609;45.768;4.884;2023-09-18T02:00:25;24.00;66.90
82851;DHT22;72609;45.768;4.884;2023-09-18T02:02:50;24.00;66.70
82851;DHT22;72609;45.768;4.884;2023-09-18T02:05:16;24.00;67.00
82851;DHT22;72609;45.768;4.884;2023-09-18T02:07:42;24.00;66.30
82851;DHT22;72609;45.768;4.884;2023-09-18T02:10:07;23.90;67.30
82851;DHT22;72609;45.768;4.884;2023-09-18T02:12:33;23.80;67.20
82851;DHT22;72609;45.768;4.884;2023-09-18T02:14:59;23.80;67.70
82851;DHT22;72609;45.768;4.884;2023-09-18T02:17:30;23.70;67.30
82851;DHT22;72609;45.768;4.884;2023-09-18T02:19:55;23.70;66.80
82851;DHT22;72609;45.768;4.884;2023-09-18T02:22:21;23.70;67.20
82851;DHT22;72609;45.768;4.884;2023-09-18T02:24:46;23.50;68.50
82851;DHT22;72609;45.768;4.884;2023-09-18T02:27:12;23.40;70.30
82851;DHT22;72609;45.768;4.884;2023-09-18T02:29:38;23.20;71.70
82851;DHT22;72609;45.768;4.884;2023-09-18T02:32:03;22.90;73.20
82851;DHT22;72609;45.768;4.884;2023-09-18T02:34:29;22.70;73.90
82851;DHT22;72609;45.768;4.884;2023-09-18T02:36:55;22.60;74.60
82851;DHT22;72609;45.768;4.884;2023-09-18T02:39:20;22.70;74.90
82851;DHT22;72609;45.768;4.884;2023-09-18T02:41:46;22.60;76.10
82851;DHT22;72609;45.768;4.884;2023-09-18T02:44:12;22.50;76.30
82851;DHT22;72609;45.768;4.884;2023-09-18T02:46:38;22.40;75.20
82851;DHT22;72609;45.768;4.884;2023-09-18T02:49:03;22.50;75.60
82851;DHT22;72609;45.768;4.884;2023-09-18T02:51:29;22.60;76.10
82851;DHT22;72609;45.768;4.884;2023-09-18T02:53:57;22.80;75.40
82851;DHT22;72609;45.768;4.884;2023-09-18T02:56:23;22.90;75.00
82851;DHT22;72609;45.768;4.884;2023-09-18T02:58:48;22.90;75.90
82851;DHT22;72609;45.768;4.884;2023-09-18T03:01:14;22.50;77.40
82851;DHT22;72609;45.768;4.884;2023-09-18T03:03:40;22.40;77.30
82851;DHT22;72609;45.768;4.884;2023-09-18T03:06:07;22.20;78.40
82851;DHT22;72609;45.768;4.884;2023-09-18T03:08:33;22.30;77.50
82851;DHT22;72609;45.768;4.884;2023-09-18T03:11:00;22.20;78.50
82851;DHT22;72609;45.768;4.884;2023-09-18T03:13:27;22.20;78.70
82851;DHT22;72609;45.768;4.884;2023-09-18T03:15:53;22.20;79.30
82851;DHT22;72609;45.768;4.884;2023-09-18T03:18:18;22.30;79.00
82851;DHT22;72609;45.768;4.884;2023-09-18T03:20:44;22.50;78.50
82851;DHT22;72609;45.768;4.884;2023-09-18T03:23:09;22.40;77.90
82851;DHT22;72609;45.768;4.884;2023-09-18T03:25:36;22.30;78.20
82851;DHT22;72609;45.768;4.884;2023-09-18T03:28:03;22.10;79.00
82851;DHT22;72609;45.768;4.884;2023-09-18T03:30:29;21.90;80.10
82851;DHT22;72609;45.768;4.884;2023-09-18T03:32:54;21.60;81.40
82851;DHT22;72609;45.768;4.884;2023-09-18T03:35:20;21.30;81.00
82851;DHT22;72609;45.768;4.884;2023-09-18T03:37:47;21.30;80.70
82851;DHT22;72609;45.768;4.884;2023-09-18T03:40:13;21.40;82.50
82851;DHT22;72609;45.768;4.884;2023-09-18T03:42:38;21.60;80.20
82851;DHT22;72609;45.768;4.884;2023-09-18T03:45:08;21.70;80.90
82851;DHT22;72609;45.768;4.884;2023-09-18T03:47:35;21.80;79.70
82851;DHT22;72609;45.768;4.884;2023-09-18T03:50:02;21.90;79.60
82851;DHT22;72609;45.768;4.884;2023-09-18T03:52:28;22.10;78.10
82851;DHT22;72609;45.768;4.884;2023-09-18T03:54:53;22.20;77.80
82851;DHT22;72609;45.768;4.884;2023-09-18T03:57:19;22.20;77.60
82851;DHT22;72609;45.768;4.884;2023-09-18T03:59:45;22.20;77.60
82851;DHT22;72609;45.768;4.884;2023-09-18T04:02:10;22.00;79.10
82851;DHT22;72609;45.768;4.884;2023-09-18T04:04:36;21.90;79.40
82851;DHT22;72609;45.768;4.884;2023-09-18T04:07:05;21.90;78.80
82851;DHT22;72609;45.768;4.884;2023-09-18T04:09:31;21.90;78.90
82851;DHT22;72609;45.768;4.884;2023-09-18T04:11:57;22.00;79.00
82851;DHT22;72609;45.768;4.884;2023-09-18T04:14:23;22.10;78.70
82851;DHT22;72609;45.768;4.884;2023-09-18T04:16:48;22.30;78.70
82851;DHT22;72609;45.768;4.884;2023-09-18T04:19:14;22.20;78.90
82851;DHT22;72609;45.768;4.884;2023-09-18T04:21:39;22.00;79.20
82851;DHT22;72609;45.768;4.884;2023-09-18T04:24:05;21.60;81.10
82851;DHT22;72609;45.768;4.884;2023-09-18T04:26:31;21.40;81.50
82851;DHT22;72609;45.768;4.884;2023-09-18T04:28:57;21.40;82.60
82851;DHT22;72609;45.768;4.884;2023-09-18T04:31:23;21.40;81.90
82851;DHT22;72609;45.768;4.884;2023-09-18T04:33:49;21.50;81.60
82851;DHT22;72609;45.768;4.884;2023-09-18T04:36:15;21.60;81.10
82851;DHT22;72609;45.768;4.884;2023-09-18T04:38:40;21.70;81.40
82851;DHT22;72609;45.768;4.884;2023-09-18T04:41:06;21.80;81.70
82851;DHT22;72609;45.768;4.884;2023-09-18T04:43:37;21.90;81.50
82851;DHT22;72609;45.768;4.884;2023-09-18T04:46:06;21.90;81.40
82851;DHT22;72609;45.768;4.884;2023-09-18T04:48:32;22.10;81.50
82851;DHT22;72609;45.768;4.884;2023-09-18T04:50:58;22.20;80.80
82851;DHT22;72609;45.768;4.884;2023-09-18T04:53:24;22.30;80.50
82851;DHT22;72609;45.768;4.884;2023-09-18T04:55:50;22.40;80.20
82851;DHT22;72609;45.768;4.884;2023-09-18T04:58:19;22.50;79.70
82851;DHT22;72609;45.768;4.884;2023-09-18T05:00:45;22.50;79.60
82851;DHT22;72609;45.768;4.884;2023-09-18T05:03:12;22.50;79.30
82851;DHT22;72609;45.768;4.884;2023-09-18T05:05:37;22.40;79.60
82851;DHT22;72609;45.768;4.884;2023-09-18T05:08:06;22.40;79.90
82851;DHT22;72609;45.768;4.884;2023-09-18T05:10:35;22.30;80.80
82851;DHT22;72609;45.768;4.884;2023-09-18T05:13:02;22.10;80.60
82851;DHT22;72609;45.768;4.884;2023-09-18T05:15:28;22.00;80.90
82851;DHT22;72609;45.768;4.884;2023-09-18T05:17:55;21.80;82.20
82851;DHT22;72609;45.768;4.884;2023-09-18T05:20:26;21.60;81.70
82851;DHT22;72609;45.768;4.884;2023-09-18T05:22:54;21.50;81.80
82851;DHT22;72609;45.768;4.884;2023-09-18T05:25:23;21.50;81.90
82851;DHT22;72609;45.768;4.884;2023-09-18T05:27:51;21.50;82.30
82851;DHT22;72609;45.768;4.884;2023-09-18T05:30:32;21.70;82.60
82851;DHT22;72609;45.768;4.884;2023-09-18T05:33:01;21.80;82.10
82851;DHT22;72609;45.768;4.884;2023-09-18T05:35:35;21.90;81.80
82851;DHT22;72609;45.768;4.884;2023-09-18T05:38:04;21.90;80.90
82851;DHT22;72609;45.768;4.884;2023-09-18T05:40:30;21.90;80.60
82851;DHT22;72609;45.768;4.884;2023-09-18T05:42:56;21.90;80.70
82851;DHT22;72609;45.768;4.884;2023-09-18T05:45:22;21.80;81.00
82851;DHT22;72609;45.768;4.884;2023-09-18T05:47:48;21.80;81.30
82851;DHT22;72609;45.768;4.884;2023-09-18T05:50:15;21.90;81.20
82851;DHT22;72609;45.768;4.884;2023-09-18T05:52:43;21.60;81.40
82851;DHT22;72609;45.768;4.884;2023-09-18T05:55:09;21.50;81.60
82851;DHT22;72609;45.768;4.884;2023-09-18T05:57:36;21.60;82.20
82851;DHT22;72609;45.768;4.884;2023-09-18T06:00:02;21.60;82.20
82851;DHT22;72609;45.768;4.884;2023-09-18T06:02:28;21.50;82.60
82851;DHT22;72609;45.768;4.884;2023-09-18T06:04:55;21.40;83.20
82851;DHT22;72609;45.768;4.884;2023-09-18T06:07:26;21.10;83.20
82851;DHT22;72609;45.768;4.884;2023-09-18T06:09:52;20.80;84.50
82851;DHT22;72609;45.768;4.884;2023-09-18T06:12:17;20.80;85.30
82851;DHT22;72609;45.768;4.884;2023-09-18T06:14:43;20.70;85.20
82851;DHT22;72609;45.768;4.884;2023-09-18T06:17:10;20.60;85.80
82851;DHT22;72609;45.768;4.884;2023-09-18T06:19:36;20.60;85.20
82851;DHT22;72609;45.768;4.884;2023-09-18T06:22:02;20.70;85.40
82851;DHT22;72609;45.768;4.884;2023-09-18T06:24:27;20.90;84.60
82851;DHT22;72609;45.768;4.884;2023-09-18T06:26:53;20.90;83.80
82851;DHT22;72609;45.768;4.884;2023-09-18T06:29:19;20.90;84.50
82851;DHT22;72609;45.768;4.884;2023-09-18T06:31:45;20.90;84.20
82851;DHT22;72609;45.768;4.884;2023-09-18T06:34:11;20.90;84.00
82851;DHT22;72609;45.768;4.884;2023-09-18T06:36:37;20.90;84.00
82851;DHT22;72609;45.768;4.884;2023-09-18T06:39:03;20.90;84.20
82851;DHT22;72609;45.768;4.884;2023-09-18T06:41:29;21.00;84.20
82851;DHT22;72609;45.768;4.884;2023-09-18T06:43:54;20.90;83.30
82851;DHT22;72609;45.768;4.884;2023-09-18T06:46:20;20.90;83.20
82851;DHT22;72609;45.768;4.884;2023-09-18T06:48:46;20.90;83.10
82851;DHT22;72609;45.768;4.884;2023-09-18T06:51:15;21.00;83.00
82851;DHT22;72609;45.768;4.884;2023-09-18T06:53:40;21.20;82.60
82851;DHT22;72609;45.768;4.884;2023-09-18T06:56:06;21.20;81.80
82851;DHT22;72609;45.768;4.884;2023-09-18T06:58:32;21.20;81.50
82851;DHT22;72609;45.768;4.884;2023-09-18T07:00:57;21.20;81.60
82851;DHT22;72609;45.768;4.884;2023-09-18T07:03:23;21.20;81.80
82851;DHT22;72609;45.768;4.884;2023-09-18T07:05:49;21.20;81.70
82851;DHT22;72609;45.768;4.884;2023-09-18T07:08:15;21.30;81.90
82851;DHT22;72609;45.768;4.884;2023-09-18T07:10:45;21.50;81.30
82851;DHT22;72609;45.768;4.884;2023-09-18T07:13:10;21.60;81.10
82851;DHT22;72609;45.768;4.884;2023-09-18T07:15:37;21.50;80.70
82851;DHT22;72609;45.768;4.884;2023-09-18T07:18:03;21.30;80.50
82851;DHT22;72609;45.768;4.884;2023-09-18T07:20:29;21.30;80.50
82851;DHT22;72609;45.768;4.884;2023-09-18T07:22:55;21.20;81.20
82851;DHT22;72609;45.768;4.884;2023-09-18T07:25:21;21.20;81.00
82851;DHT22;72609;45.768;4.884;2023-09-18T07:27:47;21.20;81.10
82851;DHT22;72609;45.768;4.884;2023-09-18T07:30:14;21.10;81.30
82851;DHT22;72609;45.768;4.884;2023-09-18T07:32:45;21.00;81.90
82851;DHT22;72609;45.768;4.884;2023-09-18T07:35:11;20.80;81.50
82851;DHT22;72609;45.768;4.884;2023-09-18T07:37:39;20.80;81.50
82851;DHT22;72609;45.768;4.884;2023-09-18T07:40:05;20.80;81.70
82851;DHT22;72609;45.768;4.884;2023-09-18T07:42:32;21.00;81.90
82851;DHT22;72609;45.768;4.884;2023-09-18T07:44:58;21.10;81.50
82851;DHT22;72609;45.768;4.884;2023-09-18T07:47:24;21.20;81.10
82851;DHT22;72609;45.768;4.884;2023-09-18T07:49:50;21.10;81.30
82851;DHT22;72609;45.768;4.884;2023-09-18T07:52:17;21.10;81.00
82851;DHT22;72609;45.768;4.884;2023-09-18T07:54:43;21.30;81.30
82851;DHT22;72609;45.768;4.884;2023-09-18T07:57:09;21.40;80.60
82851;DHT22;72609;45.768;4.884;2023-09-18T07:59:36;21.40;80.20
82851;DHT22;72609;45.768;4.884;2023-09-18T08:02:02;21.40;80.20
82851;DHT22;72609;45.768;4.884;2023-09-18T08:04:30;21.30;80.00
82851;DHT22;72609;45.768;4.884;2023-09-18T08:06:56;21.20;79.90
82851;DHT22;72609;45.768;4.884;2023-09-18T08:09:22;21.10;80.50
82851;DHT22;72609;45.768;4.884;2023-09-18T08:11:47;21.10;81.30
82851;DHT22;72609;45.768;4.884;2023-09-18T08:14:15;21.20;81.20
82851;DHT22;72609;45.768;4.884;2023-09-18T08:16:41;21.30;80.70
82851;DHT22;72609;45.768;4.884;2023-09-18T08:19:06;21.50;79.70
82851;DHT22;72609;45.768;4.884;2023-09-18T08:21:32;21.60;79.20
82851;DHT22;72609;45.768;4.884;2023-09-18T08:23:58;21.60;78.70
82851;DHT22;72609;45.768;4.884;2023-09-18T08:26:24;21.50;78.70
82851;DHT22;72609;45.768;4.884;2023-09-18T08:28:51;21.50;78.80
82851;DHT22;72609;45.768;4.884;2023-09-18T08:31:16;21.60;79.40
82851;DHT22;72609;45.768;4.884;2023-09-18T08:33:42;21.70;79.80
82851;DHT22;72609;45.768;4.884;2023-09-18T08:36:09;21.70;79.40
82851;DHT22;72609;45.768;4.884;2023-09-18T08:38:34;21.80;79.00
82851;DHT22;72609;45.768;4.884;2023-09-18T08:41:01;21.70;78.50
82851;DHT22;72609;45.768;4.884;2023-09-18T08:43:27;21.80;78.80
82851;DHT22;72609;45.768;4.884;2023-09-18T08:45:55;21.80;78.50
82851;DHT22;72609;45.768;4.884;2023-09-18T08:48:24;21.80;78.40
82851;DHT22;72609;45.768;4.884;2023-09-18T08:50:51;21.70;78.60
82851;DHT22;72609;45.768;4.884;2023-09-18T08:53:17;21.70;78.80
82851;DHT22;72609;45.768;4.884;2023-09-18T08:55:43;21.80;78.80
82851;DHT22;72609;45.768;4.884;2023-09-18T08:58:08;21.80;78.40
82851;DHT22;72609;45.768;4.884;2023-09-18T09:00:37;21.80;78.30
82851;DHT22;72609;45.768;4.884;2023-09-18T09:03:03;21.80;78.50
82851;DHT22;72609;45.768;4.884;2023-09-18T09:05:30;21.70;78.60
82851;DHT22;72609;45.768;4.884;2023-09-18T09:07:56;21.60;80.10
82851;DHT22;72609;45.768;4.884;2023-09-18T09:10:22;21.30;81.40
82851;DHT22;72609;45.768;4.884;2023-09-18T09:12:50;21.10;81.60
82851;DHT22;72609;45.768;4.884;2023-09-18T09:15:16;21.10;81.90
82851;DHT22;72609;45.768;4.884;2023-09-18T09:17:43;21.20;82.40
82851;DHT22;72609;45.768;4.884;2023-09-18T09:20:14;21.20;82.30
82851;DHT22;72609;45.768;4.884;2023-09-18T09:22:40;21.20;81.90
82851;DHT22;72609;45.768;4.884;2023-09-18T09:25:28;21.00;82.80
82851;DHT22;72609;45.768;4.884;2023-09-18T09:28:00;21.00;83.00
82851;DHT22;72609;45.768;4.884;2023-09-18T09:30:27;21.10;82.40
82851;DHT22;72609;45.768;4.884;2023-09-18T09:32:55;21.20;82.50
82851;DHT22;72609;45.768;4.884;2023-09-18T09:35:26;21.40;82.50
82851;DHT22;72609;45.768;4.884;2023-09-18T09:37:59;21.60;82.90
82851;DHT22;72609;45.768;4.884;2023-09-18T09:40:27;21.80;81.30
82851;DHT22;72609;45.768;4.884;2023-09-18T09:42:55;21.90;80.70
82851;DHT22;72609;45.768;4.884;2023-09-18T09:45:29;22.00;80.70
82851;DHT22;72609;45.768;4.884;2023-09-18T09:47:57;22.00;80.10
82851;DHT22;72609;45.768;4.884;2023-09-18T09:50:23;22.10;80.20
82851;DHT22;72609;45.768;4.884;2023-09-18T09:52:52;22.20;79.80
82851;DHT22;72609;45.768;4.884;2023-09-18T09:55:29;22.20;79.70
82851;DHT22;72609;45.768;4.884;2023-09-18T09:58:05;22.10;79.60
82851;DHT22;72609;45.768;4.884;2023-09-18T10:00:33;22.10;80.50
82851;DHT22;72609;45.768;4.884;2023-09-18T10:03:09;22.00;80.00
82851;DHT22;72609;45.768;4.884;2023-09-18T10:05:40;22.10;80.10
82851;DHT22;72609;45.768;4.884;2023-09-18T10:08:13;22.20;79.30
82851;DHT22;72609;45.768;4.884;2023-09-18T10:10:46;22.20;79.90
82851;DHT22;72609;45.768;4.884;2023-09-18T10:13:20;22.30;79.50
82851;DHT22;72609;45.768;4.884;2023-09-18T10:15:51;22.30;79.80
82851;DHT22;72609;45.768;4.884;2023-09-18T10:18:31;22.30;79.70
82851;DHT22;72609;45.768;4.884;2023-09-18T10:21:10;22.40;79.60
82851;DHT22;72609;45.768;4.884;2023-09-18T10:24:14;22.50;79.00
82851;DHT22;72609;45.768;4.884;2023-09-18T10:27:04;22.90;79.60
82851;DHT22;72609;45.768;4.884;2023-09-18T10:29:34;23.30;78.00
82851;DHT22;72609;45.768;4.884;2023-09-18T10:32:03;23.40;75.80
82851;DHT22;72609;45.768;4.884;2023-09-18T10:34:30;23.40;76.30
82851;DHT22;72609;45.768;4.884;2023-09-18T10:37:00;23.30;76.50
82851;DHT22;72609;45.768;4.884;2023-09-18T10:39:26;23.40;76.50
82851;DHT22;72609;45.768;4.884;2023-09-18T10:41:55;23.40;75.80
82851;DHT22;72609;45.768;4.884;2023-09-18T10:44:28;23.50;75.90
82851;DHT22;72609;45.768;4.884;2023-09-18T10:46:53;23.70;75.30
82851;DHT22;72609;45.768;4.884;2023-09-18T10:49:21;23.70;74.70
82851;DHT22;72609;45.768;4.884;2023-09-18T10:51:48;24.00;75.20
82851;DHT22;72609;45.768;4.884;2023-09-18T10:54:20;24.10;74.20
82851;DHT22;72609;45.768;4.884;2023-09-18T10:56:47;24.50;73.70
82851;DHT22;72609;45.768;4.884;2023-09-18T10:59:14;24.60;72.80
82851;DHT22;72609;45.768;4.884;2023-09-18T11:01:41;24.90;72.00
82851;DHT22;72609;45.768;4.884;2023-09-18T11:04:07;25.00;71.50
82851;DHT22;72609;45.768;4.884;2023-09-18T11:12:03;24.80;71.10
82851;DHT22;72609;45.768;4.884;2023-09-18T11:14:46;25.30;71.40
82851;DHT22;72609;45.768;4.884;2023-09-18T11:17:31;25.80;70.30
82851;DHT22;72609;45.768;4.884;2023-09-18T11:22:46;26.00;67.90
82851;DHT22;72609;45.768;4.884;2023-09-18T11:25:38;26.00;67.50
82851;DHT22;72609;45.768;4.884;2023-09-18T11:28:07;26.00;67.80
82851;DHT22;72609;45.768;4.884;2023-09-18T11:30:37;25.80;66.70
82851;DHT22;72609;45.768;4.884;2023-09-18T11:33:05;25.70;68.00
82851;DHT22;72609;45.768;4.884;2023-09-18T11:35:32;25.50;67.80
82851;DHT22;72609;45.768;4.884;2023-09-18T11:38:09;25.40;69.00
82851;DHT22;72609;45.768;4.884;2023-09-18T11:40:37;25.50;68.10
82851;DHT22;72609;45.768;4.884;2023-09-18T11:43:28;25.50;68.70
82851;DHT22;72609;45.768;4.884;2023-09-18T11:46:00;25.60;67.40
82851;DHT22;72609;45.768;4.884;2023-09-18T11:48:29;25.40;68.20
82851;DHT22;72609;45.768;4.884;2023-09-18T11:50:58;25.10;68.70
82851;DHT22;72609;45.768;4.884;2023-09-18T11:53:27;24.60;69.50
82851;DHT22;72609;45.768;4.884;2023-09-18T11:55:53;24.30;71.00
82851;DHT22;72609;45.768;4.884;2023-09-18T11:58:18;24.30;71.20
82851;DHT22;72609;45.768;4.884;2023-09-18T12:00:49;24.20;70.70
82851;DHT22;72609;45.768;4.884;2023-09-18T12:03:19;24.00;70.90
82851;DHT22;72609;45.768;4.884;2023-09-18T12:08:22;23.60;72.50
82851;DHT22;72609;45.768;4.884;2023-09-18T12:10:49;23.60;71.90
82851;DHT22;72609;45.768;4.884;2023-09-18T12:13:15;23.40;72.30
82851;DHT22;72609;45.768;4.884;2023-09-18T12:15:41;23.10;72.90
82851;DHT22;72609;45.768;4.884;2023-09-18T12:18:11;22.90;72.50
82851;DHT22;72609;45.768;4.884;2023-09-18T12:20:47;22.90;72.10
82851;DHT22;72609;45.768;4.884;2023-09-18T12:23:14;23.00;71.90
82851;DHT22;72609;45.768;4.884;2023-09-18T12:25:40;22.80;72.40
82851;DHT22;72609;45.768;4.884;2023-09-18T12:28:06;22.90;72.60
82851;DHT22;72609;45.768;4.884;2023-09-18T12:30:33;22.90;72.20
82851;DHT22;72609;45.768;4.884;2023-09-18T12:32:59;22.90;72.20
82851;DHT22;72609;45.768;4.884;2023-09-18T12:35:29;23.20;72.20
82851;DHT22;72609;45.768;4.884;2023-09-18T12:37:59;23.40;71.40
82851;DHT22;72609;45.768;4.884;2023-09-18T12:40:26;23.80;70.70
82851;DHT22;72609;45.768;4.884;2023-09-18T12:42:53;24.00;69.00
82851;DHT22;72609;45.768;4.884;2023-09-18T12:45:20;23.90;68.80
82851;DHT22;72609;45.768;4.884;2023-09-18T12:47:46;23.60;69.60
82851;DHT22;72609;45.768;4.884;2023-09-18T12:50:15;23.70;69.80
82851;DHT22;72609;45.768;4.884;2023-09-18T12:52:41;23.90;69.30
82851;DHT22;72609;45.768;4.884;2023-09-18T12:55:07;23.90;68.80
82851;DHT22;72609;45.768;4.884;2023-09-18T12:57:34;23.80;67.70
82851;DHT22;72609;45.768;4.884;2023-09-18T13:00:08;23.70;68.70
82851;DHT22;72609;45.768;4.884;2023-09-18T13:02:37;23.70;69.00
82851;DHT22;72609;45.768;4.884;2023-09-18T13:05:03;23.60;69.40
82851;DHT22;72609;45.768;4.884;2023-09-18T13:07:29;23.70;69.50
82851;DHT22;72609;45.768;4.884;2023-09-18T13:10:04;23.80;68.50
82851;DHT22;72609;45.768;4.884;2023-09-18T13:12:59;23.90;68.10
82851;DHT22;72609;45.768;4.884;2023-09-18T13:15:29;23.90;67.70
82851;DHT22;72609;45.768;4.884;2023-09-18T13:17:57;23.80;68.00
82851;DHT22;72609;45.768;4.884;2023-09-18T13:20:28;23.80;68.20
82851;DHT22;72609;45.768;4.884;2023-09-18T13:22:58;23.70;68.10
82851;DHT22;72609;45.768;4.884;2023-09-18T13:25:29;23.60;68.20
82851;DHT22;72609;45.768;4.884;2023-09-18T13:27:55;23.70;68.60
82851;DHT22;72609;45.768;4.884;2023-09-18T13:30:21;23.80;68.30
82851;DHT22;72609;45.768;4.884;2023-09-18T13:32:48;23.70;68.00
82851;DHT22;72609;45.768;4.884;2023-09-18T13:35:18;23.70;68.60
82851;DHT22;72609;45.768;4.884;2023-09-18T13:37:44;23.80;68.80
82851;DHT22;72609;45.768;4.884;2023-09-18T13:40:11;23.80;68.60
82851;DHT22;72609;45.768;4.884;2023-09-18T13:42:40;23.80;68.10
82851;DHT22;72609;45.768;4.884;2023-09-18T13:45:06;23.80;68.00
82851;DHT22;72609;45.768;4.884;2023-09-18T13:47:33;23.80;68.00
82851;DHT22;72609;45.768;4.884;2023-09-18T13:50:03;23.90;67.50
82851;DHT22;72609;45.768;4.884;2023-09-18T13:52:32;24.00;67.50
82851;DHT22;72609;45.768;4.884;2023-09-18T13:54:58;23.90;67.80
82851;DHT22;72609;45.768;4.884;2023-09-18T13:57:24;23.90;68.10
82851;DHT22;72609;45.768;4.884;2023-09-18T13:59:50;23.80;68.20
82851;DHT22;72609;45.768;4.884;2023-09-18T14:02:17;23.70;68.90
82851;DHT22;72609;45.768;4.884;2023-09-18T14:04:43;23.60;69.80
82851;DHT22;72609;45.768;4.884;2023-09-18T14:07:10;23.60;70.20
82851;DHT22;72609;45.768;4.884;2023-09-18T14:09:37;23.60;70.30
82851;DHT22;72609;45.768;4.884;2023-09-18T14:12:03;23.70;70.10
82851;DHT22;72609;45.768;4.884;2023-09-18T14:14:32;23.60;70.50
82851;DHT22;72609;45.768;4.884;2023-09-18T14:16:58;23.60;70.50
82851;DHT22;72609;45.768;4.884;2023-09-18T14:19:24;23.70;69.50
82851;DHT22;72609;45.768;4.884;2023-09-18T14:21:49;23.80;69.60
82851;DHT22;72609;45.768;4.884;2023-09-18T14:24:16;24.00;68.70
82851;DHT22;72609;45.768;4.884;2023-09-18T14:26:44;24.00;67.60
82851;DHT22;72609;45.768;4.884;2023-09-18T14:29:10;24.00;67.10
82851;DHT22;72609;45.768;4.884;2023-09-18T14:31:37;24.10;66.70
82851;DHT22;72609;45.768;4.884;2023-09-18T14:34:03;24.00;65.40
82851;DHT22;72609;45.768;4.884;2023-09-18T14:36:31;23.90;66.50
82851;DHT22;72609;45.768;4.884;2023-09-18T14:38:57;24.00;66.50
82851;DHT22;72609;45.768;4.884;2023-09-18T14:41:24;24.00;66.70
82851;DHT22;72609;45.768;4.884;2023-09-18T14:43:50;24.10;66.70
82851;DHT22;72609;45.768;4.884;2023-09-18T14:46:17;24.20;66.60
82851;DHT22;72609;45.768;4.884;2023-09-18T14:48:42;24.30;66.20
82851;DHT22;72609;45.768;4.884;2023-09-18T14:51:08;24.40;65.90
82851;DHT22;72609;45.768;4.884;2023-09-18T14:53:34;24.50;65.80
82851;DHT22;72609;45.768;4.884;2023-09-18T14:56:02;24.50;65.60
82851;DHT22;72609;45.768;4.884;2023-09-18T14:58:29;24.50;65.40
82851;DHT22;72609;45.768;4.884;2023-09-18T15:01:03;24.50;65.60
82851;DHT22;72609;45.768;4.884;2023-09-18T15:03:29;24.50;64.50
82851;DHT22;72609;45.768;4.884;2023-09-18T15:05:54;24.60;64.60
82851;DHT22;72609;45.768;4.884;2023-09-18T15:08:20;24.60;64.10
82851;DHT22;72609;45.768;4.884;2023-09-18T15:10:46;24.60;62.90
82851;DHT22;72609;45.768;4.884;2023-09-18T15:13:12;24.50;63.10
82851;DHT22;72609;45.768;4.884;2023-09-18T15:15:39;24.40;64.10
82851;DHT22;72609;45.768;4.884;2023-09-18T15:18:05;24.30;64.30
82851;DHT22;72609;45.768;4.884;2023-09-18T15:20:31;24.20;64.30
82851;DHT22;72609;45.768;4.884;2023-09-18T15:22:57;24.30;63.70
82851;DHT22;72609;45.768;4.884;2023-09-18T15:25:23;24.20;64.30
82851;DHT22;72609;45.768;4.884;2023-09-18T15:27:49;24.20;64.80
82851;DHT22;72609;45.768;4.884;2023-09-18T15:30:14;24.30;64.50
82851;DHT22;72609;45.768;4.884;2023-09-18T15:32:51;24.30;64.60
82851;DHT22;72609;45.768;4.884;2023-09-18T15:35:19;24.30;64.70
82851;DHT22;72609;45.768;4.884;2023-09-18T15:37:44;24.30;64.70
82851;DHT22;72609;45.768;4.884;2023-09-18T15:40:11;24.30;64.60
82851;DHT22;72609;45.768;4.884;2023-09-18T15:42:38;24.30;64.20
82851;DHT22;72609;45.768;4.884;2023-09-18T15:45:08;24.40;64.50